Time;durP1;ratioP1;P1;durP2;ratioP2;P2;SDS_P1;SDS_P2;PMS_P1;PMS_P2;Temp;Humidity;BMP_temperature;BMP_pressure;BME280_temperature;BME280_humidity;BME280_pressure;Samples;Min_cycle;Max_cycle;Signal;HPM_P1;HPM_P2
2023/06/16 00:01:07;;;;;;;;;9.00;9.00;;;;;17.62;45.81;100097.69;5097169;28;8959;-59
2023/06/16 00:03:36;;;;;;;;;9.00;7.00;;;;;17.56;45.69;100085.72;5097210;28;8833;-60
2023/06/16 00:06:12;;;;;;;;;10.50;9.50;;;;;17.52;46.07;100088.88;5096155;28;8853;-60
2023/06/16 00:08:40;;;;;;;;;9.25;9.00;;;;;17.47;45.52;100081.28;5097004;28;8862;-60
2023/06/16 00:11:08;;;;;;;;;7.00;7.00;;;;;17.43;46.11;100085.34;5097350;28;8927;-60
2023/06/16 00:13:36;;;;;;;;;8.00;6.75;;;;;17.37;45.95;100080.59;5096516;28;9510;-60
2023/06/16 00:16:03;;;;;;;;;7.50;6.75;;;;;17.33;46.21;100083.72;5096936;28;8837;-60
2023/06/16 00:18:31;;;;;;;;;9.00;9.00;;;;;17.26;46.00;100086.25;5096385;28;8865;-60
2023/06/16 00:21:02;;;;;;;;;9.00;9.00;;;;;17.21;46.32;100087.69;5097112;28;8857;-59
2023/06/16 00:23:29;;;;;;;;;7.00;6.00;;;;;17.15;46.23;100082.97;5096499;28;8856;-60
2023/06/16 00:25:57;;;;;;;;;9.75;9.25;;;;;17.09;46.16;100092.50;5096711;28;8841;-59
2023/06/16 00:28:25;;;;;;;;;10.75;9.75;;;;;17.01;46.59;100089.78;5096543;28;9515;-60
2023/06/16 00:30:52;;;;;;;;;10.00;10.00;;;;;16.95;46.83;100095.78;5096644;28;8968;-60
2023/06/16 00:33:21;;;;;;;;;9.50;9.25;;;;;16.88;46.63;100086.69;5096548;28;8849;-59
2023/06/16 00:35:48;;;;;;;;;7.75;7.25;;;;;16.84;46.97;100095.22;5096285;28;8837;-60
2023/06/16 00:38:16;;;;;;;;;11.00;9.25;;;;;16.80;47.34;100086.59;5095778;28;8836;-60
2023/06/16 00:40:44;;;;;;;;;8.00;6.00;;;;;16.78;47.53;100087.78;5096390;28;8983;-59
2023/06/16 00:43:12;;;;;;;;;9.00;9.00;;;;;16.74;47.46;100084.56;5096465;28;8974;-58
2023/06/16 00:45:40;;;;;;;;;9.25;7.00;;;;;16.69;47.17;100086.88;5097018;28;8845;-59
2023/06/16 00:48:07;;;;;;;;;9.75;9.50;;;;;16.66;47.06;100094.41;5096355;28;8854;-60
2023/06/16 00:50:35;;;;;;;;;9.50;8.25;;;;;16.60;47.74;100089.66;5095527;28;8845;-59
2023/06/16 00:53:03;;;;;;;;;7.50;7.00;;;;;16.53;47.57;100088.59;5096242;28;8868;-59
2023/06/16 00:55:30;;;;;;;;;9.50;8.50;;;;;16.48;47.36;100094.44;5095881;28;8818;-61
2023/06/16 00:57:59;;;;;;;;;8.00;8.00;;;;;16.44;47.57;100092.22;5095490;28;8814;-60
2023/06/16 01:00:27;;;;;;;;;8.00;7.00;;;;;16.38;48.05;100087.47;5096015;28;8821;-59
2023/06/16 01:02:55;;;;;;;;;7.50;7.50;;;;;16.31;47.82;100089.91;5095762;28;8849;-61
2023/06/16 01:05:24;;;;;;;;;10.50;9.00;;;;;16.27;48.04;100090.38;5095770;28;9524;-61
2023/06/16 01:07:52;;;;;;;;;9.50;8.00;;;;;16.23;47.69;100086.28;5096164;28;8859;-61
2023/06/16 01:10:20;;;;;;;;;6.00;5.50;;;;;16.20;48.32;100087.44;5095797;28;8829;-60
2023/06/16 01:12:48;;;;;;;;;6.50;6.50;;;;;16.18;48.27;100086.75;5095582;28;8845;-60
2023/06/16 01:15:15;;;;;;;;;9.00;6.50;;;;;16.16;48.64;100085.22;5095538;28;8836;-59
2023/06/16 01:17:43;;;;;;;;;8.00;7.75;;;;;16.13;47.98;100087.34;5095782;28;8833;-59
2023/06/16 01:20:12;;;;;;;;;10.25;6.50;;;;;16.06;48.57;100083.59;5095151;28;8861;-60
2023/06/16 01:22:40;;;;;;;;;6.00;6.00;;;;;15.97;48.42;100082.69;5095576;28;8853;-60
2023/06/16 01:25:07;;;;;;;;;9.50;8.00;;;;;15.86;48.49;100088.25;5095242;28;8872;-60
2023/06/16 01:27:37;;;;;;;;;8.00;6.00;;;;;15.79;49.07;100083.66;5095843;28;8845;-59
2023/06/16 01:30:04;;;;;;;;;3.50;3.50;;;;;15.71;48.51;100087.09;5096125;28;8845;-60
2023/06/16 01:32:32;;;;;;;;;7.00;7.00;;;;;15.67;49.03;100087.53;5095793;28;8849;-60
2023/06/16 01:35:00;;;;;;;;;9.75;9.00;;;;;15.60;49.00;100083.78;5096306;28;8833;-60
2023/06/16 01:37:28;;;;;;;;;9.75;8.75;;;;;15.54;49.62;100084.41;5095964;28;8875;-60
2023/06/16 01:39:56;;;;;;;;;7.00;7.00;;;;;15.49;48.80;100084.00;5095345;28;8951;-59
2023/06/16 01:42:23;;;;;;;;;9.50;8.50;;;;;15.42;49.44;100082.91;5095380;28;8852;-60
2023/06/16 01:44:51;;;;;;;;;6.00;5.50;;;;;15.36;49.59;100094.22;5096477;28;9549;-59
2023/06/16 01:47:19;;;;;;;;;6.50;6.50;;;;;15.27;49.62;100090.56;5095827;28;8957;-61
2023/06/16 01:49:47;;;;;;;;;7.00;7.00;;;;;15.21;49.50;100090.28;5095795;28;8918;-61
2023/06/16 01:52:15;;;;;;;;;8.75;8.00;;;;;15.17;50.11;100087.06;5095368;28;8833;-61
2023/06/16 01:54:42;;;;;;;;;9.50;9.00;;;;;15.15;49.85;100090.88;5095148;28;8856;-60
2023/06/16 01:57:11;;;;;;;;;9.75;8.75;;;;;15.12;50.39;100089.38;5095219;28;8826;-61
2023/06/16 01:59:39;;;;;;;;;10.00;9.75;;;;;15.11;49.91;100089.50;5096051;28;8833;-58
2023/06/16 02:02:06;;;;;;;;;7.75;7.50;;;;;15.09;50.56;100089.63;5095932;28;8837;-60
2023/06/16 02:04:34;;;;;;;;;9.50;9.00;;;;;15.06;49.80;100086.41;5095555;28;8863;-60
2023/06/16 02:07:02;;;;;;;;;6.50;6.50;;;;;15.02;50.37;100079.66;5095417;28;8872;-61
2023/06/16 02:12:16;;;;;;;;;4.50;4.50;;;;;14.98;50.31;100083.59;5094435;28;8821;-60
2023/06/16 02:14:44;;;;;;;;;6.00;6.00;;;;;14.93;50.21;100078.69;5095223;28;8879;-59
2023/06/16 02:17:12;;;;;;;;;12.00;12.00;;;;;14.86;50.83;100090.16;5095052;28;8810;-61
2023/06/16 02:19:40;;;;;;;;;9.00;8.00;;;;;14.77;50.93;100086.50;5094746;28;8861;-60
2023/06/16 02:22:08;;;;;;;;;7.50;7.50;;;;;14.68;51.19;100076.66;5095213;28;8833;-59
2023/06/16 02:24:36;;;;;;;;;10.00;9.00;;;;;14.60;51.28;100094.44;5095383;28;8934;-61
2023/06/16 02:27:04;;;;;;;;;6.00;6.00;;;;;14.54;51.41;100090.50;5095611;28;8849;-61
2023/06/16 02:29:32;;;;;;;;;7.00;6.50;;;;;14.51;51.09;100096.13;5095017;28;8848;-61
2023/06/16 02:31:59;;;;;;;;;8.50;6.25;;;;;14.49;51.25;100095.44;5095058;28;9558;-59
2023/06/16 02:34:27;;;;;;;;;10.00;9.50;;;;;14.46;51.21;100089.50;5095501;28;8863;-60
2023/06/16 02:36:56;;;;;;;;;9.00;9.00;;;;;14.42;51.09;100096.16;5095192;28;8844;-58
2023/06/16 02:39:24;;;;;;;;;10.25;10.25;;;;;14.36;51.37;100089.50;5095168;28;8841;-61
2023/06/16 02:41:51;;;;;;;;;8.50;7.25;;;;;14.32;51.47;100079.22;5094291;28;8833;-61
2023/06/16 02:44:19;;;;;;;;;6.75;6.75;;;;;14.28;51.19;100089.38;5097782;28;8821;-60
2023/06/16 02:46:47;;;;;;;;;9.00;7.00;;;;;14.25;51.24;100091.50;5098344;28;8848;-60
2023/06/16 02:49:16;;;;;;;;;5.50;5.50;;;;;14.21;52.02;100090.09;5098269;28;8902;-60
2023/06/16 02:51:43;;;;;;;;;8.50;7.00;;;;;14.17;51.33;100092.19;5098473;28;9554;-60
2023/06/16 02:54:11;;;;;;;;;10.00;10.00;;;;;14.15;51.66;100096.84;5098483;28;8861;-61
2023/06/16 02:56:39;;;;;;;;;7.75;7.50;;;;;14.10;51.81;100092.88;5098801;28;8837;-60
2023/06/16 02:59:07;;;;;;;;;7.00;7.00;;;;;14.06;52.30;100083.44;5098234;28;8867;-60
2023/06/16 03:01:35;;;;;;;;;10.50;9.50;;;;;14.01;51.72;100086.53;5098765;28;8849;-59
2023/06/16 03:04:03;;;;;;;;;9.00;6.75;;;;;14.00;52.12;100081.31;5098045;28;8853;-60
2023/06/16 03:06:34;;;;;;;;;7.00;6.00;;;;;14.03;51.77;100075.69;5097543;28;8833;-60
2023/06/16 03:09:03;;;;;;;;;6.50;6.50;;;;;14.02;51.53;100082.00;5098444;28;8858;-60
2023/06/16 03:11:30;;;;;;;;;6.25;6.25;;;;;14.01;51.95;100085.69;5097582;28;8855;-60
2023/06/16 03:13:58;;;;;;;;;6.00;6.00;;;;;14.01;52.22;100091.03;5097593;28;8859;-60
2023/06/16 03:16:27;;;;;;;;;9.50;7.00;;;;;13.99;51.95;100085.00;5097827;28;8852;-59
2023/06/16 03:18:55;;;;;;;;;9.00;7.50;;;;;13.96;52.27;100086.09;5096607;28;8818;-61
2023/06/16 03:21:23;;;;;;;;;7.00;7.00;;;;;13.95;52.05;100084.41;5097280;28;8851;-60
2023/06/16 03:23:50;;;;;;;;;9.00;7.50;;;;;13.92;51.74;100089.22;5097726;28;8837;-60
2023/06/16 03:26:18;;;;;;;;;10.00;9.00;;;;;13.89;52.02;100100.22;5098144;28;8976;-60
2023/06/16 03:28:46;;;;;;;;;9.00;7.00;;;;;13.86;52.17;100087.09;5097516;28;9553;-60
2023/06/16 03:31:14;;;;;;;;;4.00;4.00;;;;;13.83;52.08;100098.06;5097446;28;8845;-60
2023/06/16 03:33:42;;;;;;;;;7.50;6.75;;;;;13.81;52.07;100095.53;5097496;28;8841;-60
2023/06/16 03:36:10;;;;;;;;;6.50;6.50;;;;;13.81;52.18;100089.34;5097626;28;8848;-60
2023/06/16 03:38:38;;;;;;;;;9.00;9.00;;;;;13.81;52.05;100092.03;5096896;28;8837;-58
2023/06/16 03:41:05;;;;;;;;;9.75;7.00;;;;;13.81;52.32;100097.38;5097051;28;8841;-60
2023/06/16 03:43:33;;;;;;;;;6.25;6.25;;;;;13.81;52.27;100094.69;5097618;28;8853;-61
2023/06/16 03:46:00;;;;;;;;;3.25;1.00;;;;;13.82;51.89;100093.72;5097672;28;8828;-61
2023/06/16 03:48:28;;;;;;;;;7.00;7.00;;;;;13.81;52.13;100092.84;5097429;28;8845;-60
2023/06/16 03:50:59;;;;;;;;;6.75;6.00;;;;;13.79;52.04;100092.16;5097411;28;8856;-60
2023/06/16 03:53:27;;;;;;;;;7.75;7.75;;;;;13.75;52.60;100096.06;5097019;28;9544;-60
2023/06/16 03:55:55;;;;;;;;;9.00;8.50;;;;;13.72;52.33;100100.84;5096343;28;8833;-61
2023/06/16 03:58:23;;;;;;;;;5.50;5.00;;;;;13.70;52.15;100098.34;5095923;28;8845;-60
2023/06/16 04:00:51;;;;;;;;;8.00;7.00;;;;;13.71;52.40;100100.03;5097111;28;8857;-61
2023/06/16 04:03:19;;;;;;;;;6.75;6.75;;;;;13.70;52.54;100095.66;5097188;28;8983;-61
2023/06/16 04:05:47;;;;;;;;;6.25;6.25;;;;;13.72;52.38;100095.50;5097410;28;8865;-60
2023/06/16 04:08:15;;;;;;;;;7.00;7.00;;;;;13.73;52.33;100092.69;5095996;28;8871;-61
2023/06/16 04:10:42;;;;;;;;;6.50;6.00;;;;;13.78;52.49;100094.97;5096687;28;8849;-61
2023/06/16 04:13:10;;;;;;;;;8.00;8.00;;;;;13.85;52.49;100090.75;5095766;28;8841;-60
2023/06/16 04:15:38;;;;;;;;;4.50;4.25;;;;;13.91;52.50;100095.56;5096074;28;8841;-61
2023/06/16 04:18:06;;;;;;;;;7.00;7.00;;;;;13.94;52.28;100092.59;5095918;28;8818;-60
2023/06/16 04:20:33;;;;;;;;;8.00;7.00;;;;;14.00;52.52;100089.34;5095814;28;8859;-60
2023/06/16 04:23:01;;;;;;;;;3.50;3.50;;;;;14.06;51.70;100088.78;5095989;28;9585;-60
2023/06/16 04:25:29;;;;;;;;;7.00;6.00;;;;;14.14;51.79;100087.13;5096160;28;8855;-61
2023/06/16 04:27:57;;;;;;;;;6.75;6.75;;;;;14.23;51.60;100090.78;5096862;28;8944;-59
2023/06/16 04:30:25;;;;;;;;;7.75;6.50;;;;;14.29;51.81;100085.75;5096433;28;9549;-61
2023/06/16 04:32:54;;;;;;;;;5.50;5.00;;;;;14.38;51.52;100084.88;5095616;28;8853;-59
2023/06/16 04:35:22;;;;;;;;;6.50;6.50;;;;;14.48;51.55;100082.19;5095503;28;8841;-59
2023/06/16 04:37:50;;;;;;;;;9.00;9.00;;;;;14.59;51.59;100082.03;5096083;28;8837;-61
2023/06/16 04:40:20;;;;;;;;;9.00;9.00;;;;;14.71;51.55;100075.53;5095222;28;8844;-61
2023/06/16 04:42:48;;;;;;;;;10.00;9.50;;;;;14.85;51.19;100075.03;5096922;28;8864;-60
2023/06/16 04:45:16;;;;;;;;;7.50;6.75;;;;;15.00;50.54;100077.13;5095975;28;9740;-60
2023/06/16 04:47:44;;;;;;;;;5.00;4.00;;;;;15.17;50.72;100067.47;5094830;28;8892;-61
2023/06/16 04:50:12;;;;;;;;;7.50;6.75;;;;;15.44;50.11;100070.16;5095705;28;8849;-60
2023/06/16 04:52:39;;;;;;;;;6.50;6.25;;;;;15.69;49.45;100074.84;5094979;28;8841;-60
2023/06/16 04:55:07;;;;;;;;;7.00;6.25;;;;;15.91;49.24;100079.78;5094901;28;8817;-60
2023/06/16 04:57:35;;;;;;;;;6.50;6.50;;;;;16.04;49.21;100080.22;5094427;28;8813;-60
2023/06/16 05:00:05;;;;;;;;;7.50;7.50;;;;;16.15;49.42;100080.84;5093617;28;8856;-60
2023/06/16 05:02:33;;;;;;;;;11.00;10.00;;;;;16.28;48.89;100082.16;5094794;28;8845;-60
2023/06/16 05:05:01;;;;;;;;;11.00;10.50;;;;;16.41;48.85;100073.72;5094654;28;8825;-60
2023/06/16 05:07:29;;;;;;;;;12.00;11.50;;;;;16.55;48.51;100071.31;5093761;28;8849;-58
2023/06/16 05:09:57;;;;;;;;;12.25;12.00;;;;;16.68;49.07;100070.91;5093871;28;8849;-59
2023/06/16 05:12:25;;;;;;;;;12.00;12.00;;;;;16.78;48.60;100067.09;5094975;28;8897;-60
2023/06/16 05:14:53;;;;;;;;;7.00;6.00;;;;;16.90;48.53;100063.16;5094966;28;8856;-60
2023/06/16 05:17:21;;;;;;;;;10.00;10.00;;;;;17.01;48.45;100067.44;5094973;28;8841;-59
2023/06/16 05:19:49;;;;;;;;;12.00;9.50;;;;;17.11;48.20;100069.00;5094557;28;9009;-60
2023/06/16 05:22:23;;;;;;;;;12.75;10.00;;;;;17.20;48.28;100062.66;5093827;28;8969;-59
2023/06/16 05:24:51;;;;;;;;;10.00;10.00;;;;;17.29;48.42;100063.50;5094189;28;9510;-59
2023/06/16 05:27:22;;;;;;;;;13.00;13.00;;;;;17.32;48.21;100063.22;5093911;28;8841;-60
2023/06/16 05:29:51;;;;;;;;;12.25;12.00;;;;;17.34;48.17;100062.03;5093154;28;8934;-60
2023/06/16 05:32:19;;;;;;;;;12.00;12.00;;;;;17.38;48.14;100059.91;5092992;28;8959;-60
2023/06/16 05:34:47;;;;;;;;;11.50;10.50;;;;;17.40;48.29;100064.09;5094421;28;8852;-60
2023/06/16 05:37:17;;;;;;;;;14.00;13.50;;;;;17.45;47.83;100060.94;5094389;28;8863;-60
2023/06/16 05:39:45;;;;;;;;;13.00;13.00;;;;;17.52;48.21;100056.56;5094628;28;9014;-59
2023/06/16 05:42:13;;;;;;;;;14.75;12.00;;;;;17.60;47.93;100059.31;5094376;28;8845;-59
2023/06/16 05:44:42;;;;;;;;;11.50;11.50;;;;;17.69;48.05;100064.53;5092960;28;8861;-59
2023/06/16 05:47:10;;;;;;;;;11.00;10.25;;;;;17.76;47.45;100062.88;5093566;28;8841;-59
2023/06/16 05:49:38;;;;;;;;;14.00;12.75;;;;;17.84;47.69;100054.81;5093821;28;8869;-60
2023/06/16 05:52:06;;;;;;;;;14.50;10.50;;;;;17.93;47.96;100061.06;5093321;28;8841;-60
2023/06/16 05:54:35;;;;;;;;;12.00;10.50;;;;;18.07;47.93;100061.25;5094010;28;9554;-61
2023/06/16 05:57:03;;;;;;;;;17.50;15.00;;;;;18.24;47.28;100065.66;5093484;28;9602;-59
2023/06/16 05:59:30;;;;;;;;;11.50;9.50;;;;;18.42;47.32;100065.50;5092250;28;8845;-61
2023/06/16 06:01:58;;;;;;;;;12.50;10.00;;;;;18.60;47.06;100066.19;5091710;28;8845;-59
2023/06/16 06:04:26;;;;;;;;;12.00;10.00;;;;;18.75;47.17;100065.31;5091892;28;8845;-61
2023/06/16 06:06:55;;;;;;;;;12.25;12.25;;;;;18.92;46.51;100058.91;5091736;28;8848;-59
2023/06/16 06:09:23;;;;;;;;;14.00;13.25;;;;;19.08;47.12;100069.66;5091584;28;8975;-59
2023/06/16 06:11:51;;;;;;;;;13.20;12.60;;;;;19.16;46.79;100061.53;5091190;28;8868;-61
2023/06/16 06:14:18;;;;;;;;;15.75;14.50;;;;;19.26;46.91;100064.06;5092129;28;8833;-61
2023/06/16 06:16:46;;;;;;;;;15.20;15.20;;;;;19.34;46.07;100064.88;5092924;28;8848;-60
2023/06/16 06:19:17;;;;;;;;;16.00;15.50;;;;;19.43;46.54;100060.28;5095756;28;8845;-60
2023/06/16 06:21:45;;;;;;;;;12.80;10.60;;;;;19.49;46.63;100067.69;5093655;28;8933;-61
2023/06/16 06:24:14;;;;;;;;;14.60;13.00;;;;;19.54;46.41;100073.41;5094732;28;9518;-61
2023/06/16 06:26:43;;;;;;;;;11.20;10.40;;;;;19.63;46.25;100073.19;5095251;28;8837;-61
2023/06/16 06:29:11;;;;;;;;;12.20;11.60;;;;;19.68;46.31;100072.66;5095617;28;8887;-59
2023/06/16 06:31:41;;;;;;;;;14.80;14.40;;;;;19.71;46.20;100073.16;5096058;28;8849;-59
2023/06/16 06:34:08;;;;;;;;;11.80;10.40;;;;;19.79;46.19;100078.50;5096029;28;9000;-58
2023/06/16 06:36:39;;;;;;;;;15.40;13.00;;;;;19.89;45.81;100089.94;5095845;28;8822;-58
2023/06/16 06:39:08;;;;;;;;;13.80;13.00;;;;;19.98;45.79;100086.19;5095833;28;9701;-59
2023/06/16 06:41:36;;;;;;;;;16.20;14.20;;;;;20.05;46.02;100081.78;5096506;28;8845;-60
2023/06/16 06:44:05;;;;;;;;;13.40;13.00;;;;;20.15;45.93;100082.38;5096511;28;8825;-60
2023/06/16 06:46:33;;;;;;;;;14.80;13.60;;;;;20.28;45.60;100079.06;5096239;28;8914;-60
2023/06/16 06:49:01;;;;;;;;;13.20;13.00;;;;;20.41;45.11;100085.56;5095513;28;8868;-60
2023/06/16 06:51:28;;;;;;;;;11.80;11.80;;;;;20.50;45.88;100086.34;5096051;28;8845;-59
2023/06/16 06:53:56;;;;;;;;;5.00;5.00;;;;;20.54;45.63;100091.22;5095449;28;8829;-59
2023/06/16 06:56:25;;;;;;;;;10.00;9.60;;;;;20.60;45.50;100082.38;5095890;28;8836;-58
2023/06/16 06:58:53;;;;;;;;;11.00;10.40;;;;;20.71;45.12;100090.03;5096132;28;8975;-59
2023/06/16 07:01:21;;;;;;;;;8.40;8.40;;;;;20.84;45.11;100090.25;5094560;28;8918;-61
2023/06/16 07:03:49;;;;;;;;;12.00;10.20;;;;;20.94;44.76;100089.00;5095424;28;8859;-59
2023/06/16 07:06:17;;;;;;;;;10.00;10.00;;;;;21.01;45.20;100089.97;5095088;28;8933;-58
2023/06/16 07:08:45;;;;;;;;;6.40;6.20;;;;;21.07;44.43;100088.38;5095989;28;8833;-60
2023/06/16 07:11:13;;;;;;;;;7.00;5.00;;;;;21.12;44.89;100100.31;5095547;28;9530;-60
2023/06/16 07:13:41;;;;;;;;;11.60;10.80;;;;;21.19;44.65;100087.72;5095240;28;8852;-58
2023/06/16 07:16:09;;;;;;;;;13.00;10.40;;;;;21.32;44.14;100092.47;5095880;28;8849;-61
2023/06/16 07:18:38;;;;;;;;;11.00;11.00;;;;;21.44;44.42;100091.00;5096114;28;8940;-60
2023/06/16 07:21:06;;;;;;;;;11.00;9.40;;;;;21.53;44.32;100095.28;5096200;28;8901;-61
2023/06/16 07:23:34;;;;;;;;;11.80;11.20;;;;;21.58;44.01;100096.44;5095246;28;8920;-61
2023/06/16 07:26:02;;;;;;;;;9.20;8.80;;;;;21.63;43.87;100095.88;5096794;28;8844;-60
2023/06/16 07:28:30;;;;;;;;;10.40;9.80;;;;;21.71;43.92;100093.06;5095608;28;8844;-61
2023/06/16 07:30:58;;;;;;;;;8.80;8.80;;;;;21.77;43.52;100092.28;5095744;28;8860;-61
2023/06/16 07:33:26;;;;;;;;;12.00;11.40;;;;;21.80;44.08;100089.22;5096174;28;8837;-61
2023/06/16 07:35:54;;;;;;;;;11.00;10.80;;;;;21.85;43.34;100094.94;5096519;28;8841;-60
2023/06/16 07:38:23;;;;;;;;;4.20;4.20;;;;;21.92;43.58;100096.69;5096164;28;8927;-59
2023/06/16 07:40:51;;;;;;;;;9.00;9.00;;;;;22.00;43.20;100093.03;5094839;28;8955;-59
2023/06/16 07:43:21;;;;;;;;;8.00;8.00;;;;;22.11;43.27;100101.50;5095891;28;8853;-59
2023/06/16 07:45:51;;;;;;;;;8.60;8.60;;;;;22.29;42.75;100101.03;5095122;28;8910;-60
2023/06/16 07:48:19;;;;;;;;;8.40;7.80;;;;;22.41;42.68;100100.41;5094926;28;8872;-62
2023/06/16 07:50:47;;;;;;;;;9.00;9.00;;;;;22.51;42.54;100097.34;5095298;28;8895;-62
2023/06/16 07:53:15;;;;;;;;;8.00;8.00;;;;;22.52;42.37;100097.16;5096048;28;8845;-61
2023/06/16 07:55:43;;;;;;;;;8.40;8.40;;;;;22.58;42.71;100093.66;5095742;28;8848;-59
2023/06/16 07:58:11;;;;;;;;;5.40;5.40;;;;;22.65;41.92;100096.44;5095401;28;9514;-59
2023/06/16 08:00:40;;;;;;;;;9.00;8.20;;;;;22.71;42.09;100103.81;5094706;28;8853;-62
2023/06/16 08:03:08;;;;;;;;;7.60;7.60;;;;;22.76;42.00;100096.75;5094057;28;8825;-61
2023/06/16 08:05:36;;;;;;;;;8.40;8.40;;;;;22.82;41.73;100093.25;5093838;28;8863;-59
2023/06/16 08:08:04;;;;;;;;;6.80;6.80;;;;;22.89;42.25;100090.56;5093787;28;8841;-59
2023/06/16 08:10:32;;;;;;;;;7.20;7.20;;;;;22.99;41.98;100085.66;5093333;28;8845;-59
2023/06/16 08:13:00;;;;;;;;;7.00;7.00;;;;;23.12;41.40;100083.00;5094097;28;8999;-61
2023/06/16 08:15:28;;;;;;;;;9.40;9.00;;;;;23.27;41.18;100086.50;5094658;28;8829;-61
2023/06/16 08:17:56;;;;;;;;;6.00;6.00;;;;;23.44;41.19;100085.16;5095294;28;8843;-61
2023/06/16 08:20:25;;;;;;;;;6.80;6.80;;;;;23.54;40.65;100080.19;5095352;28;9007;-62
2023/06/16 08:22:54;;;;;;;;;7.20;6.00;;;;;23.63;40.50;100090.69;5094886;28;9753;-62
2023/06/16 08:25:22;;;;;;;;;9.40;9.20;;;;;23.69;40.55;100087.16;5094102;28;8874;-62
2023/06/16 08:27:50;;;;;;;;;8.60;7.20;;;;;23.78;40.68;100087.81;5094620;28;9502;-61
2023/06/16 08:30:18;;;;;;;;;9.60;9.00;;;;;23.87;40.17;100082.03;5093403;28;9835;-59
2023/06/16 08:32:46;;;;;;;;;6.40;6.40;;;;;24.00;40.18;100082.09;5094735;28;8911;-62
2023/06/16 08:35:14;;;;;;;;;4.00;2.80;;;;;24.12;39.66;100074.16;5093653;28;8951;-62
2023/06/16 08:37:43;;;;;;;;;7.20;7.20;;;;;24.27;40.00;100072.94;5093805;28;8859;-60
2023/06/16 08:40:11;;;;;;;;;8.20;7.20;;;;;24.45;39.37;100075.06;5094439;28;8848;-63
2023/06/16 08:42:39;;;;;;;;;6.00;6.00;;;;;24.61;38.48;100080.13;5095362;28;8859;-62
2023/06/16 08:45:09;;;;;;;;;6.60;6.00;;;;;24.77;39.29;100077.00;5094230;28;8970;-62
2023/06/16 08:47:38;;;;;;;;;9.80;9.80;;;;;24.87;38.50;100069.25;5093765;28;8856;-61
2023/06/16 08:50:07;;;;;;;;;5.80;4.60;;;;;24.96;38.72;100073.44;5093879;28;8865;-62
2023/06/16 08:52:35;;;;;;;;;7.40;7.00;;;;;25.02;38.48;100072.59;5094254;28;8883;-61
2023/06/16 08:55:11;;;;;;;;;4.60;3.40;;;;;25.04;38.81;100067.78;5093780;28;8845;-61
2023/06/16 08:57:40;;;;;;;;;9.00;7.00;;;;;25.03;38.25;100069.66;5093545;28;8837;-60
2023/06/16 09:00:09;;;;;;;;;7.00;6.20;;;;;25.05;38.29;100059.38;5094535;28;8863;-61
2023/06/16 09:02:37;;;;;;;;;5.80;5.20;;;;;25.17;38.49;100060.41;5094941;28;8926;-61
2023/06/16 09:05:10;;;;;;;;;5.40;5.40;;;;;25.31;37.86;100073.00;5094712;28;8867;-61
2023/06/16 09:07:39;;;;;;;;;6.00;6.00;;;;;25.46;37.56;100070.00;5093822;28;9776;-59
2023/06/16 09:10:07;;;;;;;;;5.40;5.00;;;;;25.52;37.37;100070.81;5094623;28;8841;-60
2023/06/16 09:12:35;;;;;;;;;6.20;5.60;;;;;25.62;37.64;100072.28;5093551;28;8837;-60
2023/06/16 09:15:03;;;;;;;;;7.00;6.80;;;;;25.73;37.16;100067.00;5093067;28;8845;-62
2023/06/16 09:17:31;;;;;;;;;6.80;6.80;;;;;25.87;37.24;100066.72;5093526;28;8857;-59
2023/06/16 09:20:00;;;;;;;;;6.00;6.00;;;;;26.01;36.52;100073.81;5092108;28;8849;-60
2023/06/16 09:22:29;;;;;;;;;7.00;7.00;;;;;26.14;36.73;100071.03;5092002;28;8836;-60
2023/06/16 09:24:57;;;;;;;;;7.60;7.60;;;;;26.30;35.86;100070.50;5092723;28;8879;-59
2023/06/16 09:27:25;;;;;;;;;5.00;5.00;;;;;26.44;35.57;100066.63;5093204;28;8887;-61
2023/06/16 09:29:53;;;;;;;;;7.80;7.80;;;;;26.61;35.68;100070.53;5092733;28;8825;-60
2023/06/16 09:32:21;;;;;;;;;6.60;6.60;;;;;26.70;35.79;100066.47;5092977;28;8856;-60
2023/06/16 09:34:50;;;;;;;;;7.20;7.20;;;;;26.74;35.74;100070.44;5094313;28;8837;-60
2023/06/16 09:37:17;;;;;;;;;7.60;6.20;;;;;26.83;35.57;100076.44;5093016;28;8868;-60
2023/06/16 09:39:45;;;;;;;;;8.00;8.00;;;;;26.90;34.97;100071.75;5092536;28;8863;-61
2023/06/16 09:42:16;;;;;;;;;7.60;7.20;;;;;26.97;35.27;100065.19;5094144;28;8837;-60
2023/06/16 09:44:55;;;;;;;;;5.60;5.60;;;;;27.08;35.10;100064.44;5093940;28;8922;-61
2023/06/16 09:47:23;;;;;;;;;7.00;7.00;;;;;27.10;35.16;100062.31;5093108;28;8918;-60
2023/06/16 09:49:51;;;;;;;;;8.00;8.00;;;;;27.15;35.60;100065.25;5093167;28;8849;-60
2023/06/16 09:52:19;;;;;;;;;8.00;7.20;;;;;27.26;34.44;100058.19;5094341;28;8856;-60
2023/06/16 09:54:47;;;;;;;;;8.00;7.40;;;;;27.42;34.26;100050.25;5097141;28;8971;-61
2023/06/16 09:57:17;;;;;;;;;8.00;8.00;;;;;27.59;33.96;100055.91;5097283;28;8841;-62
2023/06/16 09:59:44;;;;;;;;;6.40;6.20;;;;;27.70;33.82;100042.31;5096466;28;8845;-61
2023/06/16 10:02:13;;;;;;;;;8.80;8.00;;;;;27.94;33.48;100054.25;5097537;28;9515;-58
2023/06/16 10:04:41;;;;;;;;;10.00;9.20;;;;;28.22;33.16;100047.09;5097273;28;9012;-58
2023/06/16 10:07:09;;;;;;;;;9.20;8.20;;;;;28.46;32.65;100043.38;5096620;28;9530;-58
2023/06/16 10:09:39;;;;;;;;;7.00;5.80;;;;;28.73;32.76;100054.78;5096942;28;8869;-59
2023/06/16 10:12:25;;;;;;;;;9.00;8.20;;;;;28.95;32.50;100043.03;5096760;28;8845;-58
2023/06/16 10:14:53;;;;;;;;;5.20;5.20;;;;;29.24;32.21;100047.56;5095543;28;9781;-58
2023/06/16 10:17:21;;;;;;;;;8.80;8.80;;;;;29.61;31.98;100042.66;5096706;28;8867;-59
2023/06/16 10:19:50;;;;;;;;;9.80;9.80;;;;;29.97;31.31;100043.16;5097064;28;8865;-58
2023/06/16 10:22:18;;;;;;;;;7.60;7.60;;;;;30.29;30.79;100041.59;5096700;28;8829;-62
2023/06/16 10:24:46;;;;;;;;;6.80;5.40;;;;;30.58;30.65;100040.50;5096886;28;8856;-60
2023/06/16 10:27:14;;;;;;;;;10.20;7.60;;;;;30.79;30.55;100034.25;5095204;28;8855;-58
2023/06/16 10:29:46;;;;;;;;;8.00;8.00;;;;;31.03;30.13;100038.50;5077228;28;8844;-57
2023/06/16 10:32:17;;;;;;;;;8.00;7.00;;;;;31.26;30.26;100049.34;5076493;28;8859;-59
2023/06/16 10:34:46;;;;;;;;;9.00;9.00;;;;;31.44;29.58;100038.88;5076643;28;8855;-58
2023/06/16 10:37:14;;;;;;;;;10.00;8.80;;;;;31.74;30.08;100038.47;5094262;28;8830;-58
2023/06/16 10:39:42;;;;;;;;;8.00;7.60;;;;;32.07;29.08;100039.16;5095692;28;9600;-58
2023/06/16 10:42:11;;;;;;;;;7.40;7.40;;;;;32.39;29.31;100029.03;5096351;28;8903;-57
2023/06/16 10:44:39;;;;;;;;;8.20;8.00;;;;;32.72;28.97;100031.56;5096889;28;8849;-60
2023/06/16 10:47:07;;;;;;;;;7.40;7.40;;;;;32.91;28.74;100029.28;5095739;28;8845;-58
2023/06/16 10:49:35;;;;;;;;;5.40;5.40;;;;;33.03;28.18;100030.75;5095651;28;8860;-57
2023/06/16 10:52:03;;;;;;;;;6.80;6.80;;;;;33.26;28.41;100032.28;5095842;28;8855;-58
2023/06/16 10:54:31;;;;;;;;;6.80;6.00;;;;;33.58;27.95;100025.56;5095614;28;8846;-58
2023/06/16 10:56:59;;;;;;;;;7.00;7.00;;;;;33.78;27.65;100024.84;5075956;28;8937;-58
2023/06/16 10:59:39;;;;;;;;;7.40;7.00;;;;;33.91;27.57;100027.13;5074573;28;8974;-58
2023/06/16 11:02:07;;;;;;;;;8.40;8.20;;;;;33.92;27.52;100017.72;5074861;28;8839;-58
2023/06/16 11:04:36;;;;;;;;;7.80;7.00;;;;;34.13;27.08;100023.03;5072710;28;9816;-57
2023/06/16 11:07:05;;;;;;;;;8.00;8.00;;;;;34.42;26.59;100023.41;5074379;28;8870;-59
2023/06/16 11:09:53;;;;;;;;;7.00;7.00;;;;;34.73;27.04;100019.59;5073698;28;8856;-58
2023/06/16 11:12:21;;;;;;;;;7.20;7.00;;;;;35.05;26.75;100018.19;5074103;28;8855;-59
2023/06/16 11:14:49;;;;;;;;;7.60;6.60;;;;;35.32;26.48;100007.63;5086764;28;8975;-58
2023/06/16 11:17:18;;;;;;;;;8.80;8.80;;;;;35.55;26.34;100020.03;5094079;28;8845;-58
2023/06/16 11:19:46;;;;;;;;;8.20;7.60;;;;;35.75;25.32;100012.50;5094814;28;8945;-58
2023/06/16 11:22:14;;;;;;;;;8.00;7.80;;;;;35.83;25.68;100008.28;5096582;28;8840;-58
2023/06/16 11:24:42;;;;;;;;;8.20;8.00;;;;;35.96;25.84;100008.50;5095762;28;8837;-59
2023/06/16 11:27:11;;;;;;;;;7.60;7.00;;;;;36.11;25.84;100002.88;5096163;28;8853;-58
2023/06/16 11:29:40;;;;;;;;;9.60;8.80;;;;;36.22;25.66;100013.66;5095727;28;8853;-58
2023/06/16 11:32:08;;;;;;;;;8.00;8.00;;;;;36.33;25.29;100004.13;5095098;28;8837;-60
2023/06/16 11:34:36;;;;;;;;;8.20;8.00;;;;;36.24;25.59;100011.41;5094817;28;8853;-60
2023/06/16 11:37:04;;;;;;;;;7.80;7.80;;;;;36.19;25.02;100022.53;5095640;28;8879;-59